CST,Max TemperatureF,Mean TemperatureF,Min TemperatureF,Max Dew PointF,MeanDew PointF,Min DewpointF,Max Humidity, Mean Humidity, Min Humidity, Max Sea Level PressureIn, Mean Sea Level PressureIn, Min Sea Level PressureIn, Max VisibilityMiles, Mean VisibilityMiles, Min VisibilityMiles, Max Wind SpeedMPH, Mean Wind SpeedMPH, Max Gust SpeedMPH,PrecipitationIn, CloudCover, Events, WindDirDegrees
2013-1-1,18,12,5,7,3,1,87,72,56,30.30,30.25,30.21,10,10,10,15,6,18,0.00,0,,331
2013-1-2,31,19,6,20,11,0,87,73,58,30.24,30.16,30.09,10,10,7,17,7,22,T,5,Snow,197
2013-1-3,28,21,13,25,18,7,85,77,68,30.32,30.22,30.12,10,9,6,17,9,22,T,6,Snow,273
2013-1-4,32,22,11,22,16,7,92,78,63,30.29,30.24,30.18,10,10,9,21,9,29,0.00,0,,233
2013-1-5,36,26,16,34,26,15,96,83,70,30.27,30.11,29.94,10,9,6,18,10,25,0.03,5,Rain-Snow,201
2013-1-6,35,25,15,32,19,12,91,80,69,30.36,30.16,29.93,10,9,7,20,9,24,0.00,5,,287
2013-1-7,42,28,14,26,20,11,88,66,43,30.35,30.21,30.09,10,10,7,28,12,36,0.00,5,,193
2013-1-8,43,34,24,31,27,22,88,75,51,30.16,30.09,30.01,10,9,5,18,8,,0.00,7,,178
2013-1-9,44,34,24,31,26,21,88,69,49,30.51,30.31,30.01,10,10,10,26,11,36,0.00,2,,246
2013-1-10,47,35,22,40,29,19,100,71,41,30.52,30.23,29.88,10,8,2,16,7,22,0.75,6,Rain,123
2013-1-11,50,44,39,47,45,39,100,96,81,29.87,29.73,29.68,10,5,0,18,8,,0.35,8,Fog-Rain,185
2013-1-12,52,38,24,46,26,19,86,75,63,30.04,29.93,29.69,10,9,2,23,13,30,0.07,8,Rain-Snow,276
2013-1-13,24,21,18,21,12,4,84,76,67,30.29,30.10,29.93,10,9,1,18,11,21,0.06,7,Snow,305
2013-1-14,25,16,6,9,7,3,88,69,50,30.50,30.46,30.32,10,10,10,13,6,17,0.00,1,,267
2013-1-15,28,18,7,15,10,5,91,73,55,30.47,30.35,30.12,10,10,9,12,2,13,0.00,2,,188
2013-1-16,36,24,11,30,20,8,92,74,56,30.14,29.99,29.84,10,10,10,20,9,26,0.00,4,,234
2013-1-17,34,26,18,29,12,6,89,66,42,30.44,30.36,30.13,10,10,10,17,7,21,0.00,1,,318
2013-1-18,43,29,15,31,24,11,84,71,57,30.46,30.15,29.91,10,10,10,30,13,39,0.00,5,,194
2013-1-19,47,34,20,35,28,7,76,62,48,30.03,29.86,29.74,10,10,10,38,15,49,0.00,5,,237
2013-1-20,20,15,10,5,1,0,67,56,45,30.36,30.28,30.09,10,10,10,31,13,43,0.00,4,,304
2013-1-21,12,7,2,3,-6,-10,69,57,45,30.34,30.27,30.20,10,10,9,24,16,31,T,2,Snow,301
2013-1-22,12,5,-3,-3,-7,-11,71,61,50,30.44,30.40,30.34,10,10,10,17,9,22,0.00,4,,290
2013-1-23,21,15,9,12,5,-3,74,63,52,30.45,30.26,30.11,10,8,2,26,11,38,T,7,Snow,261
2013-1-24,20,12,4,6,-1,-7,68,54,39,30.70,30.56,30.39,10,10,10,23,10,30,0.00,7,,72
2013-1-25,32,25,17,18,13,4,92,71,49,30.34,30.13,29.96,10,8,2,23,12,31,0.06,7,Snow,232
2013-1-26,28,18,8,13,8,3,80,63,45,30.44,30.38,30.26,10,10,10,13,6,16,0.00,3,,4
2013-1-27,36,30,23,36,26,14,100,80,60,30.38,30.10,29.88,10,6,2,31,13,41,0.14,8,Rain-Snow,154
2013-1-28,47,42,36,46,39,36,100,88,76,29.96,29.87,29.77,10,5,0,18,7,23,0.19,8,Fog-Rain-Thunderstorm,184
2013-1-29,62,50,38,58,51,36,100,93,86,29.77,29.59,29.44,10,5,0,21,10,26,0.86,8,Fog-Rain-Thunderstorm,210
2013-1-30,38,28,18,36,28,11,100,87,73,29.69,29.39,29.28,10,4,0,24,14,35,0.57,8,Fog-Rain-Snow,347
2013-1-31,18,10,2,10,2,-6,80,71,61,30.25,29.95,29.72,10,8,2,25,17,32,T,6,Snow,289